Pagrindinis puslapis
METAR-TAF:

METAR-TAF

Oro uostai :

Sakonakhonas, Tailandas

platuma: 17-11-42N, ilguma: 104-07-08E, Aukštis: 161 m

Dabartinis oras

Ataskaita buvo paskelbta 9 valandos ir 16 minutes, ne 12:00 UTC
Ramus vėjas
Temperatūra 31°C
Drėgmė 63%
Slėgis 1009 hPa
Matomumas 10 km arba daugiau
Mažai debesys ne aukštis 3500 ft

METAR: VTUI 121200Z 00000KT 9999 FEW035 31/23 Q1009 NOSIG

Laikas: 04:16 (21:16 UTC)

Prognozė

Ataskaita buvo paskelbta 4 valandos ir 16 minutes, ne 17:00 UTC
Prognozė galioja nuo 12 metu 18 UTC su 13 metu 18 UTC
Vėjas 5 kt iš Pietų/Pietvakarių
Matomumas: 9000 m
Mažai debesys ne aukštis 3000 ft
Laikinai
nuo 13 metu 05 UTC su 13 metu 11 UTC
Vėjas 15 kt nuo kintamojo kryptimis
Matomumas: 4000 m
Mažai debesys ne aukštis 1800 ft, Liūtiniai kamuoliniai debesys.
Su prošvaistėmis ne aukštis 2000 ft
perkūnija, lietus

TAF: VTUI 121700Z 1218/1318 20005KT 9000 FEW030 TEMPO 1305/1311 VRB15KT 4000 TSRA FEW018CB BKN020

Orai ataskaitas ir orų prognozės (METAR, TAF).

turimą stotys yra geltonos ir raudonos taškus žemėlapyje.

Perkelti pele per norėdami pamatyti stoties vardą.

Tada spustelėkite, norėdami matyti oro stebėjimo ir prognozės.

Norėdami pakeisti žemėlapį: spustelėkite ant žalios mygtukų su juodo kryžiaus žemyn,; žalią mygtuką su brūkšneliu, jei norite nutolinti; arba žalių rodyklių gretimoms žemėlapius.


METAR-TAF: